sensor_id;sensor_type;location;lat;lon;timestamp;temperature;humidity
39237;DHT22;36851;49.996;8.268;2022-07-23T01:55:17;28.10;82.90
39237;DHT22;36851;49.996;8.268;2022-07-23T01:57:48;27.90;83.40
39237;DHT22;36851;49.996;8.268;2022-07-23T02:00:20;27.90;83.70
39237;DHT22;36851;49.996;8.268;2022-07-23T02:02:50;27.80;83.90
39237;DHT22;36851;49.996;8.268;2022-07-23T02:05:18;27.80;84.00
39237;DHT22;36851;49.996;8.268;2022-07-23T02:07:45;27.80;83.80
39237;DHT22;36851;49.996;8.268;2022-07-23T02:10:13;27.90;83.50
39237;DHT22;36851;49.996;8.268;2022-07-23T02:12:40;27.90;83.60
39237;DHT22;36851;49.996;8.268;2022-07-23T02:15:09;27.90;83.70
39237;DHT22;36851;49.996;8.268;2022-07-23T02:17:39;27.90;83.70
39237;DHT22;36851;49.996;8.268;2022-07-23T02:20:09;27.90;83.70
39237;DHT22;36851;49.996;8.268;2022-07-23T02:22:37;27.90;83.60
39237;DHT22;36851;49.996;8.268;2022-07-23T02:25:05;28.00;83.70
39237;DHT22;36851;49.996;8.268;2022-07-23T02:27:34;28.00;83.70
39237;DHT22;36851;49.996;8.268;2022-07-23T02:30:03;28.00;83.60
39237;DHT22;36851;49.996;8.268;2022-07-23T02:32:33;28.00;84.30
39237;DHT22;36851;49.996;8.268;2022-07-23T02:35:02;28.00;83.70
39237;DHT22;36851;49.996;8.268;2022-07-23T02:37:30;28.00;83.90
39237;DHT22;36851;49.996;8.268;2022-07-23T02:39:58;27.90;83.80
39237;DHT22;36851;49.996;8.268;2022-07-23T02:42:26;27.90;83.90
39237;DHT22;36851;49.996;8.268;2022-07-23T02:44:53;27.80;84.10
39237;DHT22;36851;49.996;8.268;2022-07-23T02:47:21;27.70;84.30
39237;DHT22;36851;49.996;8.268;2022-07-23T02:49:48;27.60;84.40
39237;DHT22;36851;49.996;8.268;2022-07-23T02:52:15;27.70;84.40
39237;DHT22;36851;49.996;8.268;2022-07-23T02:54:43;27.70;84.20
39237;DHT22;36851;49.996;8.268;2022-07-23T02:57:14;27.80;84.20
39237;DHT22;36851;49.996;8.268;2022-07-23T02:59:42;27.80;84.10
39237;DHT22;36851;49.996;8.268;2022-07-23T03:02:09;27.80;84.10
39237;DHT22;36851;49.996;8.268;2022-07-23T03:04:38;27.80;84.10
39237;DHT22;36851;49.996;8.268;2022-07-23T03:07:05;27.80;84.20
39237;DHT22;36851;49.996;8.268;2022-07-23T03:09:32;27.70;84.30
39237;DHT22;36851;49.996;8.268;2022-07-23T03:12:00;27.80;84.30
39237;DHT22;36851;49.996;8.268;2022-07-23T03:14:27;27.70;84.30
39237;DHT22;36851;49.996;8.268;2022-07-23T03:16:55;27.80;84.20
39237;DHT22;36851;49.996;8.268;2022-07-23T03:19:22;27.80;84.00
39237;DHT22;36851;49.996;8.268;2022-07-23T03:21:50;27.80;84.20
39237;DHT22;36851;49.996;8.268;2022-07-23T03:24:17;27.80;84.10
39237;DHT22;36851;49.996;8.268;2022-07-23T03:26:45;27.80;84.20
39237;DHT22;36851;49.996;8.268;2022-07-23T03:29:13;27.80;84.20
39237;DHT22;36851;49.996;8.268;2022-07-23T03:31:41;27.80;84.20
39237;DHT22;36851;49.996;8.268;2022-07-23T03:34:09;27.80;84.00
39237;DHT22;36851;49.996;8.268;2022-07-23T03:36:36;27.70;84.10
39237;DHT22;36851;49.996;8.268;2022-07-23T03:39:05;27.80;84.10
39237;DHT22;36851;49.996;8.268;2022-07-23T03:41:39;27.80;84.60
39237;DHT22;36851;49.996;8.268;2022-07-23T03:44:06;27.80;83.90
39237;DHT22;36851;49.996;8.268;2022-07-23T03:46:33;27.80;83.80
39237;DHT22;36851;49.996;8.268;2022-07-23T03:49:01;27.90;83.90
39237;DHT22;36851;49.996;8.268;2022-07-23T03:51:29;27.90;83.80
39237;DHT22;36851;49.996;8.268;2022-07-23T03:53:56;27.80;83.80
39237;DHT22;36851;49.996;8.268;2022-07-23T03:56:23;27.80;83.80
39237;DHT22;36851;49.996;8.268;2022-07-23T03:58:51;27.80;83.80
39237;DHT22;36851;49.996;8.268;2022-07-23T04:01:18;27.80;83.70
39237;DHT22;36851;49.996;8.268;2022-07-23T04:03:45;27.80;83.70
39237;DHT22;36851;49.996;8.268;2022-07-23T04:06:13;27.80;83.80
39237;DHT22;36851;49.996;8.268;2022-07-23T04:08:41;27.70;83.80
39237;DHT22;36851;49.996;8.268;2022-07-23T04:11:08;27.70;83.70
39237;DHT22;36851;49.996;8.268;2022-07-23T04:13:35;27.50;84.10
39237;DHT22;36851;49.996;8.268;2022-07-23T04:16:04;27.30;84.40
39237;DHT22;36851;49.996;8.268;2022-07-23T04:18:31;27.40;84.70
39237;DHT22;36851;49.996;8.268;2022-07-23T04:21:06;27.50;84.40
39237;DHT22;36851;49.996;8.268;2022-07-23T04:23:35;27.60;84.10
39237;DHT22;36851;49.996;8.268;2022-07-23T04:26:02;27.60;83.90
39237;DHT22;36851;49.996;8.268;2022-07-23T04:28:31;27.50;84.30
39237;DHT22;36851;49.996;8.268;2022-07-23T04:30:58;27.50;84.30
39237;DHT22;36851;49.996;8.268;2022-07-23T04:33:26;27.60;84.20
39237;DHT22;36851;49.996;8.268;2022-07-23T04:35:56;27.60;84.20
39237;DHT22;36851;49.996;8.268;2022-07-23T04:38:23;27.60;84.20
39237;DHT22;36851;49.996;8.268;2022-07-23T04:40:55;27.60;84.30
39237;DHT22;36851;49.996;8.268;2022-07-23T04:43:22;27.70;84.10
39237;DHT22;36851;49.996;8.268;2022-07-23T04:45:51;27.60;84.30
39237;DHT22;36851;49.996;8.268;2022-07-23T04:48:18;27.50;84.40
39237;DHT22;36851;49.996;8.268;2022-07-23T04:50:50;27.50;84.60
39237;DHT22;36851;49.996;8.268;2022-07-23T04:53:22;27.50;84.50
39237;DHT22;36851;49.996;8.268;2022-07-23T04:55:53;27.50;84.50
39237;DHT22;36851;49.996;8.268;2022-07-23T04:58:21;27.50;84.50
39237;DHT22;36851;49.996;8.268;2022-07-23T05:00:48;27.50;84.50
39237;DHT22;36851;49.996;8.268;2022-07-23T05:03:17;27.50;84.50
39237;DHT22;36851;49.996;8.268;2022-07-23T05:05:46;27.40;84.60
39237;DHT22;36851;49.996;8.268;2022-07-23T05:08:16;27.40;84.60
39237;DHT22;36851;49.996;8.268;2022-07-23T05:10:49;27.50;84.50
39237;DHT22;36851;49.996;8.268;2022-07-23T05:13:18;27.50;84.40
39237;DHT22;36851;49.996;8.268;2022-07-23T05:15:46;27.50;84.50
39237;DHT22;36851;49.996;8.268;2022-07-23T05:18:14;27.40;84.70
39237;DHT22;36851;49.996;8.268;2022-07-23T05:20:43;27.30;84.90
39237;DHT22;36851;49.996;8.268;2022-07-23T05:23:13;27.40;84.80
39237;DHT22;36851;49.996;8.268;2022-07-23T05:25:41;27.40;84.80
39237;DHT22;36851;49.996;8.268;2022-07-23T05:28:09;27.40;85.00
39237;DHT22;36851;49.996;8.268;2022-07-23T05:30:37;27.40;84.80
39237;DHT22;36851;49.996;8.268;2022-07-23T05:33:07;27.50;84.60
39237;DHT22;36851;49.996;8.268;2022-07-23T05:35:36;27.50;84.60
39237;DHT22;36851;49.996;8.268;2022-07-23T05:38:24;27.60;84.50
39237;DHT22;36851;49.996;8.268;2022-07-23T05:40:52;27.40;84.90
39237;DHT22;36851;49.996;8.268;2022-07-23T05:43:20;27.30;85.30
39237;DHT22;36851;49.996;8.268;2022-07-23T05:45:48;27.40;85.20
39237;DHT22;36851;49.996;8.268;2022-07-23T05:48:16;27.50;85.00
39237;DHT22;36851;49.996;8.268;2022-07-23T05:50:57;27.60;84.90
39237;DHT22;36851;49.996;8.268;2022-07-23T05:53:30;27.60;84.90
39237;DHT22;36851;49.996;8.268;2022-07-23T05:56:01;27.50;85.20
39237;DHT22;36851;49.996;8.268;2022-07-23T05:58:30;27.60;85.30
39237;DHT22;36851;49.996;8.268;2022-07-23T06:00:58;27.50;85.10
39237;DHT22;36851;49.996;8.268;2022-07-23T06:03:28;27.50;85.20
39237;DHT22;36851;49.996;8.268;2022-07-23T06:05:56;27.60;85.00
39237;DHT22;36851;49.996;8.268;2022-07-23T06:08:24;27.50;85.20
39237;DHT22;36851;49.996;8.268;2022-07-23T06:10:52;27.40;85.30
39237;DHT22;36851;49.996;8.268;2022-07-23T06:13:20;27.50;85.20
39237;DHT22;36851;49.996;8.268;2022-07-23T06:15:47;27.60;85.40
39237;DHT22;36851;49.996;8.268;2022-07-23T06:18:16;27.70;84.70
39237;DHT22;36851;49.996;8.268;2022-07-23T06:20:43;27.70;84.60
39237;DHT22;36851;49.996;8.268;2022-07-23T06:23:16;27.60;84.40
39237;DHT22;36851;49.996;8.268;2022-07-23T06:25:44;27.60;84.30
39237;DHT22;36851;49.996;8.268;2022-07-23T06:28:11;27.40;84.30
39237;DHT22;36851;49.996;8.268;2022-07-23T06:30:41;27.50;84.80
39237;DHT22;36851;49.996;8.268;2022-07-23T06:33:09;27.60;84.40
39237;DHT22;36851;49.996;8.268;2022-07-23T06:35:38;27.60;84.00
39237;DHT22;36851;49.996;8.268;2022-07-23T06:38:07;27.50;84.10
39237;DHT22;36851;49.996;8.268;2022-07-23T06:40:34;27.50;83.90
39237;DHT22;36851;49.996;8.268;2022-07-23T06:43:02;27.60;83.70
39237;DHT22;36851;49.996;8.268;2022-07-23T06:45:29;27.30;84.00
39237;DHT22;36851;49.996;8.268;2022-07-23T06:47:56;27.30;84.30
39237;DHT22;36851;49.996;8.268;2022-07-23T06:50:24;27.40;84.10
39237;DHT22;36851;49.996;8.268;2022-07-23T06:52:51;27.50;84.20
39237;DHT22;36851;49.996;8.268;2022-07-23T06:55:18;27.50;84.30
39237;DHT22;36851;49.996;8.268;2022-07-23T06:57:46;27.50;84.30
39237;DHT22;36851;49.996;8.268;2022-07-23T07:00:13;27.50;85.50
39237;DHT22;36851;49.996;8.268;2022-07-23T07:02:41;27.50;84.90
39237;DHT22;36851;49.996;8.268;2022-07-23T07:05:09;27.40;85.80
39237;DHT22;36851;49.996;8.268;2022-07-23T07:07:36;27.10;85.80
39237;DHT22;36851;49.996;8.268;2022-07-23T07:10:04;27.00;86.00
39237;DHT22;36851;49.996;8.268;2022-07-23T07:12:32;27.10;86.00
39237;DHT22;36851;49.996;8.268;2022-07-23T07:14:59;27.10;85.60
39237;DHT22;36851;49.996;8.268;2022-07-23T07:17:26;27.10;85.90
39237;DHT22;36851;49.996;8.268;2022-07-23T07:19:54;27.30;85.10
39237;DHT22;36851;49.996;8.268;2022-07-23T07:22:21;27.20;85.30
39237;DHT22;36851;49.996;8.268;2022-07-23T07:24:48;27.10;85.10
39237;DHT22;36851;49.996;8.268;2022-07-23T07:27:16;27.10;85.20
39237;DHT22;36851;49.996;8.268;2022-07-23T07:29:43;27.30;85.10
39237;DHT22;36851;49.996;8.268;2022-07-23T07:32:10;27.30;84.90
39237;DHT22;36851;49.996;8.268;2022-07-23T07:34:38;27.40;84.80
39237;DHT22;36851;49.996;8.268;2022-07-23T07:37:05;27.40;85.00
39237;DHT22;36851;49.996;8.268;2022-07-23T07:39:32;27.40;86.00
39237;DHT22;36851;49.996;8.268;2022-07-23T07:42:00;27.30;86.10
39237;DHT22;36851;49.996;8.268;2022-07-23T07:44:27;27.40;86.80
39237;DHT22;36851;49.996;8.268;2022-07-23T07:46:54;27.50;86.50
39237;DHT22;36851;49.996;8.268;2022-07-23T07:49:22;27.60;87.60
39237;DHT22;36851;49.996;8.268;2022-07-23T07:51:52;27.70;87.30
39237;DHT22;36851;49.996;8.268;2022-07-23T07:54:19;27.70;86.80
39237;DHT22;36851;49.996;8.268;2022-07-23T07:56:47;27.60;85.90
39237;DHT22;36851;49.996;8.268;2022-07-23T07:59:15;27.50;85.80
39237;DHT22;36851;49.996;8.268;2022-07-23T08:01:43;27.50;85.80
39237;DHT22;36851;49.996;8.268;2022-07-23T08:04:11;27.60;86.00
39237;DHT22;36851;49.996;8.268;2022-07-23T08:06:38;27.60;86.50
39237;DHT22;36851;49.996;8.268;2022-07-23T08:09:05;27.70;86.20
39237;DHT22;36851;49.996;8.268;2022-07-23T08:11:33;27.80;85.80
39237;DHT22;36851;49.996;8.268;2022-07-23T08:14:00;27.80;85.40
39237;DHT22;36851;49.996;8.268;2022-07-23T08:16:28;27.90;85.50
39237;DHT22;36851;49.996;8.268;2022-07-23T08:18:56;27.90;85.60
39237;DHT22;36851;49.996;8.268;2022-07-23T08:21:23;28.00;85.90
39237;DHT22;36851;49.996;8.268;2022-07-23T08:23:50;28.00;85.50
39237;DHT22;36851;49.996;8.268;2022-07-23T08:26:18;27.90;85.20
39237;DHT22;36851;49.996;8.268;2022-07-23T08:28:45;27.90;86.30
39237;DHT22;36851;49.996;8.268;2022-07-23T08:31:12;28.00;86.30
39237;DHT22;36851;49.996;8.268;2022-07-23T08:33:42;28.10;86.20
39237;DHT22;36851;49.996;8.268;2022-07-23T08:36:09;28.10;86.10
39237;DHT22;36851;49.996;8.268;2022-07-23T08:38:37;28.20;86.10
39237;DHT22;36851;49.996;8.268;2022-07-23T08:41:05;28.20;86.10
39237;DHT22;36851;49.996;8.268;2022-07-23T08:43:34;28.20;86.20
39237;DHT22;36851;49.996;8.268;2022-07-23T08:46:04;28.20;86.30
39237;DHT22;36851;49.996;8.268;2022-07-23T08:48:35;28.20;86.30
39237;DHT22;36851;49.996;8.268;2022-07-23T08:51:06;28.20;86.30
39237;DHT22;36851;49.996;8.268;2022-07-23T08:53:34;28.20;86.30
39237;DHT22;36851;49.996;8.268;2022-07-23T08:56:06;28.20;86.30
39237;DHT22;36851;49.996;8.268;2022-07-23T08:58:34;28.20;86.30
39237;DHT22;36851;49.996;8.268;2022-07-23T09:01:02;28.20;86.40
39237;DHT22;36851;49.996;8.268;2022-07-23T09:03:34;28.20;86.40
39237;DHT22;36851;49.996;8.268;2022-07-23T09:06:02;28.20;86.40
39237;DHT22;36851;49.996;8.268;2022-07-23T09:08:38;28.20;86.40
39237;DHT22;36851;49.996;8.268;2022-07-23T09:11:08;28.20;86.40
39237;DHT22;36851;49.996;8.268;2022-07-23T09:16:15;28.20;86.40
39237;DHT22;36851;49.996;8.268;2022-07-23T09:18:44;28.20;86.40
39237;DHT22;36851;49.996;8.268;2022-07-23T09:21:28;28.20;86.40
39237;DHT22;36851;49.996;8.268;2022-07-23T09:29:24;28.20;86.50
39237;DHT22;36851;49.996;8.268;2022-07-23T09:32:02;28.20;86.40
39237;DHT22;36851;49.996;8.268;2022-07-23T09:34:33;28.20;86.40
39237;DHT22;36851;49.996;8.268;2022-07-23T09:37:16;28.30;86.50
39237;DHT22;36851;49.996;8.268;2022-07-23T09:39:45;28.30;86.50
39237;DHT22;36851;49.996;8.268;2022-07-23T09:42:25;28.20;86.40
39237;DHT22;36851;49.996;8.268;2022-07-23T09:44:55;28.30;86.40
39237;DHT22;36851;49.996;8.268;2022-07-23T09:47:26;28.30;86.40
39237;DHT22;36851;49.996;8.268;2022-07-23T09:50:00;28.30;86.40
39237;DHT22;36851;49.996;8.268;2022-07-23T09:52:33;28.30;86.50
39237;DHT22;36851;49.996;8.268;2022-07-23T09:55:04;28.30;86.40
39237;DHT22;36851;49.996;8.268;2022-07-23T09:57:32;28.30;86.40
39237;DHT22;36851;49.996;8.268;2022-07-23T10:00:03;28.30;86.40
39237;DHT22;36851;49.996;8.268;2022-07-23T10:02:34;28.30;86.40
39237;DHT22;36851;49.996;8.268;2022-07-23T10:05:21;28.30;86.30
39237;DHT22;36851;49.996;8.268;2022-07-23T10:08:18;28.30;86.40
39237;DHT22;36851;49.996;8.268;2022-07-23T10:11:04;28.30;86.30
39237;DHT22;36851;49.996;8.268;2022-07-23T10:13:32;28.30;86.30
39237;DHT22;36851;49.996;8.268;2022-07-23T10:16:14;28.30;86.30
39237;DHT22;36851;49.996;8.268;2022-07-23T10:18:54;28.30;86.30
39237;DHT22;36851;49.996;8.268;2022-07-23T10:21:27;28.30;86.30
39237;DHT22;36851;49.996;8.268;2022-07-23T10:24:28;28.30;86.20
39237;DHT22;36851;49.996;8.268;2022-07-23T10:27:22;28.30;86.20
39237;DHT22;36851;49.996;8.268;2022-07-23T10:33:30;28.30;86.20
39237;DHT22;36851;49.996;8.268;2022-07-23T10:36:15;28.30;86.20
39237;DHT22;36851;49.996;8.268;2022-07-23T10:38:53;28.30;86.10
39237;DHT22;36851;49.996;8.268;2022-07-23T10:41:37;28.30;86.00
39237;DHT22;36851;49.996;8.268;2022-07-23T10:44:10;28.30;86.10
39237;DHT22;36851;49.996;8.268;2022-07-23T10:46:59;28.30;86.10
39237;DHT22;36851;49.996;8.268;2022-07-23T10:49:35;28.40;86.10
39237;DHT22;36851;49.996;8.268;2022-07-23T10:57:22;28.30;86.00
39237;DHT22;36851;49.996;8.268;2022-07-23T11:02:30;28.30;85.90
39237;DHT22;36851;49.996;8.268;2022-07-23T11:05:22;28.30;85.90
39237;DHT22;36851;49.996;8.268;2022-07-23T11:10:41;28.30;85.90
39237;DHT22;36851;49.996;8.268;2022-07-23T11:26:43;28.40;85.70
39237;DHT22;36851;49.996;8.268;2022-07-23T11:37:03;28.40;85.70
39237;DHT22;36851;49.996;8.268;2022-07-23T11:39:31;28.40;85.80
39237;DHT22;36851;49.996;8.268;2022-07-23T11:41:59;28.40;85.90
39237;DHT22;36851;49.996;8.268;2022-07-23T11:44:29;28.40;85.80
39237;DHT22;36851;49.996;8.268;2022-07-23T11:47:01;28.40;86.00
39237;DHT22;36851;49.996;8.268;2022-07-23T11:49:32;28.40;86.00
39237;DHT22;36851;49.996;8.268;2022-07-23T11:52:11;28.40;86.50
39237;DHT22;36851;49.996;8.268;2022-07-23T11:57:26;28.50;86.80
39237;DHT22;36851;49.996;8.268;2022-07-23T12:00:06;28.50;87.30
39237;DHT22;36851;49.996;8.268;2022-07-23T12:02:42;28.50;87.20
39237;DHT22;36851;49.996;8.268;2022-07-23T12:05:18;28.50;87.40
39237;DHT22;36851;49.996;8.268;2022-07-23T12:07:48;28.50;87.40
39237;DHT22;36851;49.996;8.268;2022-07-23T12:10:22;28.50;87.50
39237;DHT22;36851;49.996;8.268;2022-07-23T12:13:01;28.60;87.70
39237;DHT22;36851;49.996;8.268;2022-07-23T12:15:32;28.60;88.00
39237;DHT22;36851;49.996;8.268;2022-07-23T12:18:01;28.60;88.20
39237;DHT22;36851;49.996;8.268;2022-07-23T12:20:32;28.50;88.50
39237;DHT22;36851;49.996;8.268;2022-07-23T12:23:03;28.50;89.40
39237;DHT22;36851;49.996;8.268;2022-07-23T12:25:36;28.50;89.70
39237;DHT22;36851;49.996;8.268;2022-07-23T12:28:37;28.60;90.00
39237;DHT22;36851;49.996;8.268;2022-07-23T12:30:58;28.60;90.10
39237;DHT22;36851;49.996;8.268;2022-07-23T12:35:58;28.70;90.40
39237;DHT22;36851;49.996;8.268;2022-07-23T12:38:28;28.70;90.50
39237;DHT22;36851;49.996;8.268;2022-07-23T12:41:02;28.70;90.50
39237;DHT22;36851;49.996;8.268;2022-07-23T12:43:33;28.70;90.60
39237;DHT22;36851;49.996;8.268;2022-07-23T12:46:11;28.70;90.70
39237;DHT22;36851;49.996;8.268;2022-07-23T12:51:30;28.80;90.80
39237;DHT22;36851;49.996;8.268;2022-07-23T12:54:05;28.70;90.80
39237;DHT22;36851;49.996;8.268;2022-07-23T12:56:38;28.70;90.80
39237;DHT22;36851;49.996;8.268;2022-07-23T12:59:09;28.70;90.70
39237;DHT22;36851;49.996;8.268;2022-07-23T13:01:45;28.80;90.70
39237;DHT22;36851;49.996;8.268;2022-07-23T13:04:19;28.80;90.70
39237;DHT22;36851;49.996;8.268;2022-07-23T13:06:58;28.70;90.60
39237;DHT22;36851;49.996;8.268;2022-07-23T13:09:33;28.70;90.50
39237;DHT22;36851;49.996;8.268;2022-07-23T13:12:08;28.70;90.70
39237;DHT22;36851;49.996;8.268;2022-07-23T13:14:38;28.60;90.40
39237;DHT22;36851;49.996;8.268;2022-07-23T13:17:05;28.70;90.30
39237;DHT22;36851;49.996;8.268;2022-07-23T13:19:33;28.70;90.30
39237;DHT22;36851;49.996;8.268;2022-07-23T13:22:01;28.60;90.10
39237;DHT22;36851;49.996;8.268;2022-07-23T13:24:36;28.70;90.10
39237;DHT22;36851;49.996;8.268;2022-07-23T13:27:06;28.70;90.00
39237;DHT22;36851;49.996;8.268;2022-07-23T13:29:37;28.80;89.90
39237;DHT22;36851;49.996;8.268;2022-07-23T13:32:05;28.80;89.70
39237;DHT22;36851;49.996;8.268;2022-07-23T13:34:37;28.80;89.50
39237;DHT22;36851;49.996;8.268;2022-07-23T13:37:07;28.80;89.80
39237;DHT22;36851;49.996;8.268;2022-07-23T13:39:34;28.80;89.00
39237;DHT22;36851;49.996;8.268;2022-07-23T13:42:21;28.80;88.70
39237;DHT22;36851;49.996;8.268;2022-07-23T13:44:49;28.90;88.50
39237;DHT22;36851;49.996;8.268;2022-07-23T13:47:17;28.90;88.30
39237;DHT22;36851;49.996;8.268;2022-07-23T13:49:44;28.90;88.00
39237;DHT22;36851;49.996;8.268;2022-07-23T13:52:14;28.90;87.80
39237;DHT22;36851;49.996;8.268;2022-07-23T13:54:43;28.80;87.50
39237;DHT22;36851;49.996;8.268;2022-07-23T13:57:10;28.80;87.40
39237;DHT22;36851;49.996;8.268;2022-07-23T13:59:38;28.80;87.10
39237;DHT22;36851;49.996;8.268;2022-07-23T14:02:06;28.80;86.60
39237;DHT22;36851;49.996;8.268;2022-07-23T14:04:52;29.00;86.20
39237;DHT22;36851;49.996;8.268;2022-07-23T14:07:19;29.00;85.80
39237;DHT22;36851;49.996;8.268;2022-07-23T14:09:48;28.90;85.30
39237;DHT22;36851;49.996;8.268;2022-07-23T14:12:16;29.00;85.20
39237;DHT22;36851;49.996;8.268;2022-07-23T14:14:44;29.10;84.90
39237;DHT22;36851;49.996;8.268;2022-07-23T14:17:11;29.20;84.50
39237;DHT22;36851;49.996;8.268;2022-07-23T14:19:39;29.20;84.20
39237;DHT22;36851;49.996;8.268;2022-07-23T14:22:06;29.30;83.90
39237;DHT22;36851;49.996;8.268;2022-07-23T14:24:34;29.30;83.80
39237;DHT22;36851;49.996;8.268;2022-07-23T14:27:03;29.20;83.90
39237;DHT22;36851;49.996;8.268;2022-07-23T14:29:32;29.10;84.00
39237;DHT22;36851;49.996;8.268;2022-07-23T14:32:01;29.10;84.10
39237;DHT22;36851;49.996;8.268;2022-07-23T14:34:29;29.00;84.00
39237;DHT22;36851;49.996;8.268;2022-07-23T14:36:57;29.00;84.10
39237;DHT22;36851;49.996;8.268;2022-07-23T14:39:24;29.10;84.00
39237;DHT22;36851;49.996;8.268;2022-07-23T14:41:53;29.20;83.60
39237;DHT22;36851;49.996;8.268;2022-07-23T14:44:21;29.20;83.40
39237;DHT22;36851;49.996;8.268;2022-07-23T14:46:48;29.20;83.50
39237;DHT22;36851;49.996;8.268;2022-07-23T14:49:16;29.30;83.50
39237;DHT22;36851;49.996;8.268;2022-07-23T14:51:44;29.40;83.30
39237;DHT22;36851;49.996;8.268;2022-07-23T14:54:11;29.50;83.00
39237;DHT22;36851;49.996;8.268;2022-07-23T14:56:41;29.50;82.60
39237;DHT22;36851;49.996;8.268;2022-07-23T14:59:09;29.60;82.30
39237;DHT22;36851;49.996;8.268;2022-07-23T15:01:36;29.70;81.80
39237;DHT22;36851;49.996;8.268;2022-07-23T15:04:05;29.70;81.40
39237;DHT22;36851;49.996;8.268;2022-07-23T15:06:53;29.70;81.00
39237;DHT22;36851;49.996;8.268;2022-07-23T15:09:20;29.70;80.60
39237;DHT22;36851;49.996;8.268;2022-07-23T15:11:48;29.80;81.10
39237;DHT22;36851;49.996;8.268;2022-07-23T15:14:16;29.80;80.40
39237;DHT22;36851;49.996;8.268;2022-07-23T15:16:55;29.80;80.40
39237;DHT22;36851;49.996;8.268;2022-07-23T15:19:23;29.80;80.70
39237;DHT22;36851;49.996;8.268;2022-07-23T15:21:51;29.80;80.90
39237;DHT22;36851;49.996;8.268;2022-07-23T15:24:18;29.90;81.00
39237;DHT22;36851;49.996;8.268;2022-07-23T15:26:46;29.90;80.90
39237;DHT22;36851;49.996;8.268;2022-07-23T15:29:13;29.90;81.50
39237;DHT22;36851;49.996;8.268;2022-07-23T15:31:40;29.90;81.20
39237;DHT22;36851;49.996;8.268;2022-07-23T15:34:08;29.90;80.90
39237;DHT22;36851;49.996;8.268;2022-07-23T15:36:36;29.90;77.80
39237;DHT22;36851;49.996;8.268;2022-07-23T15:39:03;29.80;77.80
39237;DHT22;36851;49.996;8.268;2022-07-23T15:41:32;29.80;75.70
39237;DHT22;36851;49.996;8.268;2022-07-23T15:44:00;29.70;74.40
39237;DHT22;36851;49.996;8.268;2022-07-23T15:46:47;29.70;74.30
39237;DHT22;36851;49.996;8.268;2022-07-23T15:49:16;29.70;73.30
39237;DHT22;36851;49.996;8.268;2022-07-23T15:51:45;29.60;73.10
39237;DHT22;36851;49.996;8.268;2022-07-23T15:54:14;29.70;71.60
39237;DHT22;36851;49.996;8.268;2022-07-23T15:56:42;29.70;70.80
39237;DHT22;36851;49.996;8.268;2022-07-23T15:59:10;29.70;70.40
39237;DHT22;36851;49.996;8.268;2022-07-23T16:01:38;29.70;70.30
39237;DHT22;36851;49.996;8.268;2022-07-23T16:04:05;29.70;69.70
39237;DHT22;36851;49.996;8.268;2022-07-23T16:06:33;29.60;70.10
39237;DHT22;36851;49.996;8.268;2022-07-23T16:09:00;29.50;70.10
39237;DHT22;36851;49.996;8.268;2022-07-23T16:11:33;29.50;70.40
39237;DHT22;36851;49.996;8.268;2022-07-23T16:14:00;29.40;70.50
39237;DHT22;36851;49.996;8.268;2022-07-23T16:16:28;29.40;70.20
39237;DHT22;36851;49.996;8.268;2022-07-23T16:18:56;29.30;69.90
39237;DHT22;36851;49.996;8.268;2022-07-23T16:21:24;29.20;67.80
39237;DHT22;36851;49.996;8.268;2022-07-23T16:23:52;29.30;68.50
39237;DHT22;36851;49.996;8.268;2022-07-23T16:26:19;29.20;67.70
39237;DHT22;36851;49.996;8.268;2022-07-23T16:28:47;29.20;68.40
39237;DHT22;36851;49.996;8.268;2022-07-23T16:31:15;29.20;68.50
39237;DHT22;36851;49.996;8.268;2022-07-23T16:33:42;29.10;68.30
39237;DHT22;36851;49.996;8.268;2022-07-23T16:36:10;29.10;68.80
39237;DHT22;36851;49.996;8.268;2022-07-23T16:38:38;29.10;68.60
39237;DHT22;36851;49.996;8.268;2022-07-23T16:41:06;29.10;68.80
39237;DHT22;36851;49.996;8.268;2022-07-23T16:43:34;29.00;68.30
39237;DHT22;36851;49.996;8.268;2022-07-23T16:46:01;29.00;69.80
39237;DHT22;36851;49.996;8.268;2022-07-23T16:48:28;29.00;69.30
39237;DHT22;36851;49.996;8.268;2022-07-23T16:50:55;29.00;69.60
39237;DHT22;36851;49.996;8.268;2022-07-23T16:53:22;28.90;70.10
39237;DHT22;36851;49.996;8.268;2022-07-23T16:55:51;28.90;69.80
39237;DHT22;36851;49.996;8.268;2022-07-23T16:58:19;28.90;70.10
39237;DHT22;36851;49.996;8.268;2022-07-23T17:00:46;28.90;70.00
39237;DHT22;36851;49.996;8.268;2022-07-23T17:03:14;28.90;69.80
39237;DHT22;36851;49.996;8.268;2022-07-23T17:05:42;28.90;69.30
39237;DHT22;36851;49.996;8.268;2022-07-23T17:08:09;28.90;69.70
39237;DHT22;36851;49.996;8.268;2022-07-23T17:10:37;28.90;69.90
39237;DHT22;36851;49.996;8.268;2022-07-23T17:13:04;28.80;69.90
39237;DHT22;36851;49.996;8.268;2022-07-23T17:15:31;28.80;69.30
39237;DHT22;36851;49.996;8.268;2022-07-23T17:17:59;28.80;70.00
39237;DHT22;36851;49.996;8.268;2022-07-23T17:20:26;28.90;70.10
39237;DHT22;36851;49.996;8.268;2022-07-23T17:22:53;28.80;70.40
39237;DHT22;36851;49.996;8.268;2022-07-23T17:25:20;28.80;70.50
39237;DHT22;36851;49.996;8.268;2022-07-23T17:27:48;28.80;70.20
39237;DHT22;36851;49.996;8.268;2022-07-23T17:30:16;28.90;70.90
39237;DHT22;36851;49.996;8.268;2022-07-23T17:32:45;28.80;70.70
39237;DHT22;36851;49.996;8.268;2022-07-23T17:35:13;28.80;71.10
39237;DHT22;36851;49.996;8.268;2022-07-23T17:37:40;28.80;71.40
39237;DHT22;36851;49.996;8.268;2022-07-23T17:40:11;28.80;70.70
39237;DHT22;36851;49.996;8.268;2022-07-23T17:42:38;28.80;70.60
39237;DHT22;36851;49.996;8.268;2022-07-23T17:45:06;28.80;70.60
39237;DHT22;36851;49.996;8.268;2022-07-23T17:47:34;28.80;69.90
39237;DHT22;36851;49.996;8.268;2022-07-23T17:50:01;28.80;70.00
39237;DHT22;36851;49.996;8.268;2022-07-23T17:52:29;28.80;70.00
39237;DHT22;36851;49.996;8.268;2022-07-23T17:54:56;28.80;70.10
39237;DHT22;36851;49.996;8.268;2022-07-23T17:57:24;28.70;69.70
39237;DHT22;36851;49.996;8.268;2022-07-23T17:59:51;28.70;69.70
39237;DHT22;36851;49.996;8.268;2022-07-23T18:02:18;28.70;69.50
39237;DHT22;36851;49.996;8.268;2022-07-23T18:04:46;28.70;69.80
39237;DHT22;36851;49.996;8.268;2022-07-23T18:07:13;28.70;70.30
39237;DHT22;36851;49.996;8.268;2022-07-23T18:09:40;28.70;70.90
39237;DHT22;36851;49.996;8.268;2022-07-23T18:12:09;28.80;71.50
39237;DHT22;36851;49.996;8.268;2022-07-23T18:14:36;28.80;71.80
39237;DHT22;36851;49.996;8.268;2022-07-23T18:17:03;28.80;71.80
39237;DHT22;36851;49.996;8.268;2022-07-23T18:19:31;28.90;72.50
39237;DHT22;36851;49.996;8.268;2022-07-23T18:22:00;28.90;72.90
39237;DHT22;36851;49.996;8.268;2022-07-23T18:24:27;28.90;73.00
39237;DHT22;36851;49.996;8.268;2022-07-23T18:26:55;28.90;72.80
39237;DHT22;36851;49.996;8.268;2022-07-23T18:29:22;28.90;72.80
39237;DHT22;36851;49.996;8.268;2022-07-23T18:31:50;28.90;73.50